sensor_id;sensor_type;location;lat;lon;timestamp;P1;durP1;ratioP1;P2;durP2;ratioP2
1178;SDS011;578;48.408;10.004;2022-08-19T00:01:18;38.30;;;34.70;;
1178;SDS011;578;48.408;10.004;2022-08-19T00:03:46;37.67;;;33.50;;
1178;SDS011;578;48.408;10.004;2022-08-19T00:06:13;38.57;;;34.40;;
1178;SDS011;578;48.408;10.004;2022-08-19T00:08:40;36.50;;;32.80;;
1178;SDS011;578;48.408;10.004;2022-08-19T00:11:06;38.80;;;35.10;;
1178;SDS011;578;48.408;10.004;2022-08-19T00:13:35;42.70;;;36.93;;
1178;SDS011;578;48.408;10.004;2022-08-19T00:16:03;39.80;;;35.43;;
1178;SDS011;578;48.408;10.004;2022-08-19T00:18:31;41.50;;;37.17;;
1178;SDS011;578;48.408;10.004;2022-08-19T00:20:58;41.13;;;37.17;;
1178;SDS011;578;48.408;10.004;2022-08-19T00:23:25;40.57;;;36.40;;
1178;SDS011;578;48.408;10.004;2022-08-19T00:25:52;48.47;;;42.30;;
1178;SDS011;578;48.408;10.004;2022-08-19T00:28:19;51.10;;;42.13;;
1178;SDS011;578;48.408;10.004;2022-08-19T00:30:47;47.20;;;42.30;;
1178;SDS011;578;48.408;10.004;2022-08-19T00:33:16;50.93;;;42.63;;
1178;SDS011;578;48.408;10.004;2022-08-19T00:35:43;47.97;;;42.93;;
1178;SDS011;578;48.408;10.004;2022-08-19T00:38:10;53.57;;;45.97;;
1178;SDS011;578;48.408;10.004;2022-08-19T00:40:36;47.27;;;42.40;;
1178;SDS011;578;48.408;10.004;2022-08-19T00:43:07;51.37;;;45.90;;
1178;SDS011;578;48.408;10.004;2022-08-19T00:45:35;52.17;;;46.70;;
1178;SDS011;578;48.408;10.004;2022-08-19T00:48:03;48.83;;;43.73;;
1178;SDS011;578;48.408;10.004;2022-08-19T00:50:30;49.60;;;44.27;;
1178;SDS011;578;48.408;10.004;2022-08-19T00:52:57;51.17;;;45.33;;
1178;SDS011;578;48.408;10.004;2022-08-19T00:55:25;57.40;;;48.60;;
1178;SDS011;578;48.408;10.004;2022-08-19T00:58:02;50.13;;;44.67;;
1178;SDS011;578;48.408;10.004;2022-08-19T01:00:32;56.13;;;46.77;;
1178;SDS011;578;48.408;10.004;2022-08-19T01:03:03;51.77;;;45.67;;
1178;SDS011;578;48.408;10.004;2022-08-19T01:05:31;55.67;;;46.27;;
1178;SDS011;578;48.408;10.004;2022-08-19T01:07:59;49.93;;;44.70;;
1178;SDS011;578;48.408;10.004;2022-08-19T01:10:29;54.87;;;47.50;;
1178;SDS011;578;48.408;10.004;2022-08-19T01:12:58;58.10;;;48.47;;
1178;SDS011;578;48.408;10.004;2022-08-19T01:15:29;55.33;;;47.67;;
1178;SDS011;578;48.408;10.004;2022-08-19T01:18:08;58.37;;;48.50;;
1178;SDS011;578;48.408;10.004;2022-08-19T01:20:38;56.83;;;48.43;;
1178;SDS011;578;48.408;10.004;2022-08-19T01:23:07;53.30;;;47.33;;
1178;SDS011;578;48.408;10.004;2022-08-19T01:25:35;47.87;;;42.73;;
1178;SDS011;578;48.408;10.004;2022-08-19T01:28:08;54.60;;;48.70;;
1178;SDS011;578;48.408;10.004;2022-08-19T01:30:41;56.20;;;46.87;;
1178;SDS011;578;48.408;10.004;2022-08-19T01:33:08;51.67;;;46.13;;
1178;SDS011;578;48.408;10.004;2022-08-19T01:35:35;56.07;;;50.00;;
1178;SDS011;578;48.408;10.004;2022-08-19T01:38:04;55.30;;;46.37;;
1178;SDS011;578;48.408;10.004;2022-08-19T01:40:36;56.67;;;50.07;;
1178;SDS011;578;48.408;10.004;2022-08-19T01:43:06;59.63;;;48.17;;
1178;SDS011;578;48.408;10.004;2022-08-19T01:45:33;55.10;;;46.60;;
1178;SDS011;578;48.408;10.004;2022-08-19T01:48:02;58.77;;;48.50;;
1178;SDS011;578;48.408;10.004;2022-08-19T01:50:30;58.80;;;49.53;;
1178;SDS011;578;48.408;10.004;2022-08-19T01:52:57;55.57;;;47.13;;
1178;SDS011;578;48.408;10.004;2022-08-19T01:55:25;52.27;;;45.57;;
1178;SDS011;578;48.408;10.004;2022-08-19T01:57:54;60.83;;;49.13;;
1178;SDS011;578;48.408;10.004;2022-08-19T02:00:24;62.97;;;51.10;;
1178;SDS011;578;48.408;10.004;2022-08-19T02:02:53;57.93;;;46.97;;
1178;SDS011;578;48.408;10.004;2022-08-19T02:05:20;49.93;;;44.47;;
1178;SDS011;578;48.408;10.004;2022-08-19T02:07:47;52.57;;;46.17;;
1178;SDS011;578;48.408;10.004;2022-08-19T02:10:15;62.97;;;47.03;;
1178;SDS011;578;48.408;10.004;2022-08-19T02:12:47;54.07;;;46.20;;
1178;SDS011;578;48.408;10.004;2022-08-19T02:15:15;52.07;;;46.53;;
1178;SDS011;578;48.408;10.004;2022-08-19T02:17:43;50.03;;;44.17;;
1178;SDS011;578;48.408;10.004;2022-08-19T02:20:10;50.53;;;44.40;;
1178;SDS011;578;48.408;10.004;2022-08-19T02:22:38;51.20;;;45.37;;
1178;SDS011;578;48.408;10.004;2022-08-19T02:25:06;55.47;;;44.47;;
1178;SDS011;578;48.408;10.004;2022-08-19T02:27:34;53.07;;;44.77;;
1178;SDS011;578;48.408;10.004;2022-08-19T02:30:00;59.93;;;47.13;;
1178;SDS011;578;48.408;10.004;2022-08-19T02:32:29;50.30;;;43.87;;
1178;SDS011;578;48.408;10.004;2022-08-19T02:34:57;55.07;;;45.27;;
1178;SDS011;578;48.408;10.004;2022-08-19T02:37:24;54.90;;;44.87;;
1178;SDS011;578;48.408;10.004;2022-08-19T02:40:08;56.40;;;44.80;;
1178;SDS011;578;48.408;10.004;2022-08-19T02:42:35;50.80;;;44.50;;
1178;SDS011;578;48.408;10.004;2022-08-19T02:45:02;55.53;;;44.87;;
1178;SDS011;578;48.408;10.004;2022-08-19T02:47:31;54.87;;;45.23;;
1178;SDS011;578;48.408;10.004;2022-08-19T02:49:58;54.83;;;45.30;;
1178;SDS011;578;48.408;10.004;2022-08-19T02:52:27;61.47;;;47.07;;
1178;SDS011;578;48.408;10.004;2022-08-19T02:54:53;57.30;;;45.87;;
1178;SDS011;578;48.408;10.004;2022-08-19T02:57:22;59.27;;;46.33;;
1178;SDS011;578;48.408;10.004;2022-08-19T02:59:49;63.17;;;47.30;;
1178;SDS011;578;48.408;10.004;2022-08-19T03:02:16;58.87;;;47.17;;
1178;SDS011;578;48.408;10.004;2022-08-19T03:04:44;62.50;;;47.83;;
1178;SDS011;578;48.408;10.004;2022-08-19T03:07:12;60.80;;;46.23;;
1178;SDS011;578;48.408;10.004;2022-08-19T03:09:40;56.30;;;44.90;;
1178;SDS011;578;48.408;10.004;2022-08-19T03:12:08;58.27;;;46.70;;
1178;SDS011;578;48.408;10.004;2022-08-19T03:14:36;60.43;;;46.87;;
1178;SDS011;578;48.408;10.004;2022-08-19T03:17:03;58.37;;;46.50;;
1178;SDS011;578;48.408;10.004;2022-08-19T03:19:30;58.00;;;46.07;;
1178;SDS011;578;48.408;10.004;2022-08-19T03:21:59;59.93;;;45.77;;
1178;SDS011;578;48.408;10.004;2022-08-19T03:24:25;63.00;;;45.53;;
1178;SDS011;578;48.408;10.004;2022-08-19T03:26:53;58.40;;;45.10;;
1178;SDS011;578;48.408;10.004;2022-08-19T03:29:22;61.27;;;46.00;;
1178;SDS011;578;48.408;10.004;2022-08-19T03:31:49;59.23;;;45.83;;
1178;SDS011;578;48.408;10.004;2022-08-19T03:34:17;61.17;;;48.17;;
1178;SDS011;578;48.408;10.004;2022-08-19T03:36:46;55.43;;;43.60;;
1178;SDS011;578;48.408;10.004;2022-08-19T03:39:14;64.53;;;47.80;;
1178;SDS011;578;48.408;10.004;2022-08-19T03:41:43;61.67;;;48.27;;
1178;SDS011;578;48.408;10.004;2022-08-19T03:44:11;57.37;;;45.67;;
1178;SDS011;578;48.408;10.004;2022-08-19T03:46:39;62.67;;;48.87;;
1178;SDS011;578;48.408;10.004;2022-08-19T03:49:05;67.87;;;47.17;;
1178;SDS011;578;48.408;10.004;2022-08-19T03:51:34;63.07;;;47.80;;
1178;SDS011;578;48.408;10.004;2022-08-19T03:54:05;65.83;;;49.00;;
1178;SDS011;578;48.408;10.004;2022-08-19T03:56:35;64.53;;;48.57;;
1178;SDS011;578;48.408;10.004;2022-08-19T03:59:05;67.70;;;50.07;;
1178;SDS011;578;48.408;10.004;2022-08-19T04:01:34;70.43;;;47.87;;
1178;SDS011;578;48.408;10.004;2022-08-19T04:04:01;67.80;;;49.17;;
1178;SDS011;578;48.408;10.004;2022-08-19T04:06:28;70.30;;;51.13;;
1178;SDS011;578;48.408;10.004;2022-08-19T04:08:57;62.97;;;48.17;;
1178;SDS011;578;48.408;10.004;2022-08-19T04:11:27;72.07;;;50.70;;
1178;SDS011;578;48.408;10.004;2022-08-19T04:13:57;64.80;;;47.80;;
1178;SDS011;578;48.408;10.004;2022-08-19T04:16:25;61.70;;;49.33;;
1178;SDS011;578;48.408;10.004;2022-08-19T04:18:54;72.53;;;51.00;;
1178;SDS011;578;48.408;10.004;2022-08-19T04:21:23;71.67;;;51.73;;
1178;SDS011;578;48.408;10.004;2022-08-19T04:23:51;63.30;;;47.27;;
1178;SDS011;578;48.408;10.004;2022-08-19T04:26:20;62.20;;;46.20;;
1178;SDS011;578;48.408;10.004;2022-08-19T04:28:49;73.43;;;48.20;;
1178;SDS011;578;48.408;10.004;2022-08-19T04:31:19;62.53;;;46.77;;
1178;SDS011;578;48.408;10.004;2022-08-19T04:33:47;77.23;;;47.93;;
1178;SDS011;578;48.408;10.004;2022-08-19T04:36:17;66.70;;;46.27;;
1178;SDS011;578;48.408;10.004;2022-08-19T04:38:46;69.80;;;48.10;;
1178;SDS011;578;48.408;10.004;2022-08-19T04:41:13;64.37;;;47.90;;
1178;SDS011;578;48.408;10.004;2022-08-19T04:43:58;77.77;;;45.70;;
1178;SDS011;578;48.408;10.004;2022-08-19T04:46:26;77.67;;;49.80;;
1178;SDS011;578;48.408;10.004;2022-08-19T04:48:56;79.30;;;52.07;;
1178;SDS011;578;48.408;10.004;2022-08-19T04:51:23;73.93;;;48.20;;
1178;SDS011;578;48.408;10.004;2022-08-19T04:53:50;76.90;;;51.50;;
1178;SDS011;578;48.408;10.004;2022-08-19T04:56:17;70.70;;;47.93;;
1178;SDS011;578;48.408;10.004;2022-08-19T04:58:48;68.37;;;47.00;;
1178;SDS011;578;48.408;10.004;2022-08-19T05:01:17;90.33;;;51.83;;
1178;SDS011;578;48.408;10.004;2022-08-19T05:03:47;85.07;;;52.63;;
1178;SDS011;578;48.408;10.004;2022-08-19T05:06:15;74.30;;;51.30;;
1178;SDS011;578;48.408;10.004;2022-08-19T05:08:44;77.70;;;50.30;;
1178;SDS011;578;48.408;10.004;2022-08-19T05:11:12;70.30;;;49.07;;
1178;SDS011;578;48.408;10.004;2022-08-19T05:13:40;71.00;;;47.30;;
1178;SDS011;578;48.408;10.004;2022-08-19T05:16:08;75.13;;;47.90;;
1178;SDS011;578;48.408;10.004;2022-08-19T05:18:36;78.30;;;49.13;;
1178;SDS011;578;48.408;10.004;2022-08-19T05:21:22;70.27;;;47.50;;
1178;SDS011;578;48.408;10.004;2022-08-19T05:24:06;69.90;;;47.83;;
1178;SDS011;578;48.408;10.004;2022-08-19T05:26:34;78.30;;;48.30;;
1178;SDS011;578;48.408;10.004;2022-08-19T05:29:00;77.97;;;50.53;;
1178;SDS011;578;48.408;10.004;2022-08-19T05:31:28;72.03;;;48.20;;
1178;SDS011;578;48.408;10.004;2022-08-19T05:33:55;88.47;;;52.20;;
1178;SDS011;578;48.408;10.004;2022-08-19T05:36:24;75.07;;;48.70;;
1178;SDS011;578;48.408;10.004;2022-08-19T05:38:51;73.50;;;48.97;;
1178;SDS011;578;48.408;10.004;2022-08-19T05:41:19;91.23;;;53.80;;
1178;SDS011;578;48.408;10.004;2022-08-19T05:43:48;87.17;;;54.20;;
1178;SDS011;578;48.408;10.004;2022-08-19T05:46:16;76.37;;;50.47;;
1178;SDS011;578;48.408;10.004;2022-08-19T05:48:44;81.10;;;51.67;;
1178;SDS011;578;48.408;10.004;2022-08-19T05:51:11;70.90;;;50.00;;
1178;SDS011;578;48.408;10.004;2022-08-19T05:53:39;72.67;;;46.63;;
1178;SDS011;578;48.408;10.004;2022-08-19T05:56:07;76.87;;;51.60;;
1178;SDS011;578;48.408;10.004;2022-08-19T05:58:35;81.70;;;51.23;;
1178;SDS011;578;48.408;10.004;2022-08-19T06:01:03;83.10;;;51.40;;
1178;SDS011;578;48.408;10.004;2022-08-19T06:03:31;91.60;;;53.77;;
1178;SDS011;578;48.408;10.004;2022-08-19T06:05:59;82.50;;;50.27;;
1178;SDS011;578;48.408;10.004;2022-08-19T06:08:27;76.13;;;49.60;;
1178;SDS011;578;48.408;10.004;2022-08-19T06:10:56;88.60;;;49.47;;
1178;SDS011;578;48.408;10.004;2022-08-19T06:13:22;86.27;;;51.50;;
1178;SDS011;578;48.408;10.004;2022-08-19T06:15:50;93.73;;;51.53;;
1178;SDS011;578;48.408;10.004;2022-08-19T06:18:17;75.93;;;50.27;;
1178;SDS011;578;48.408;10.004;2022-08-19T06:20:44;80.43;;;50.43;;
1178;SDS011;578;48.408;10.004;2022-08-19T06:23:11;79.40;;;50.93;;
1178;SDS011;578;48.408;10.004;2022-08-19T06:25:38;72.40;;;49.30;;
1178;SDS011;578;48.408;10.004;2022-08-19T06:28:06;78.13;;;49.03;;
1178;SDS011;578;48.408;10.004;2022-08-19T06:30:33;77.57;;;47.80;;
1178;SDS011;578;48.408;10.004;2022-08-19T06:33:00;88.77;;;50.00;;
1178;SDS011;578;48.408;10.004;2022-08-19T06:35:26;79.53;;;50.17;;
1178;SDS011;578;48.408;10.004;2022-08-19T06:37:54;64.77;;;45.10;;
1178;SDS011;578;48.408;10.004;2022-08-19T06:40:21;80.70;;;48.97;;
1178;SDS011;578;48.408;10.004;2022-08-19T06:42:48;75.07;;;49.03;;
1178;SDS011;578;48.408;10.004;2022-08-19T06:45:16;61.50;;;45.80;;
1178;SDS011;578;48.408;10.004;2022-08-19T06:47:43;75.27;;;46.80;;
1178;SDS011;578;48.408;10.004;2022-08-19T06:50:13;64.90;;;47.93;;
1178;SDS011;578;48.408;10.004;2022-08-19T06:52:40;63.90;;;43.90;;
1178;SDS011;578;48.408;10.004;2022-08-19T06:55:07;72.63;;;47.20;;
1178;SDS011;578;48.408;10.004;2022-08-19T06:57:34;67.20;;;46.23;;
1178;SDS011;578;48.408;10.004;2022-08-19T07:00:01;74.63;;;49.90;;
1178;SDS011;578;48.408;10.004;2022-08-19T07:02:29;72.50;;;46.10;;
1178;SDS011;578;48.408;10.004;2022-08-19T07:04:56;77.13;;;48.43;;
1178;SDS011;578;48.408;10.004;2022-08-19T07:07:23;75.50;;;48.93;;
1178;SDS011;578;48.408;10.004;2022-08-19T07:09:50;71.23;;;47.47;;
1178;SDS011;578;48.408;10.004;2022-08-19T07:12:18;59.70;;;42.83;;
1178;SDS011;578;48.408;10.004;2022-08-19T07:14:45;66.53;;;45.27;;
1178;SDS011;578;48.408;10.004;2022-08-19T07:17:12;67.43;;;47.37;;
1178;SDS011;578;48.408;10.004;2022-08-19T07:19:40;62.37;;;44.60;;
1178;SDS011;578;48.408;10.004;2022-08-19T07:22:08;72.13;;;47.53;;
1178;SDS011;578;48.408;10.004;2022-08-19T07:24:36;69.83;;;47.67;;
1178;SDS011;578;48.408;10.004;2022-08-19T07:27:04;70.40;;;45.33;;
1178;SDS011;578;48.408;10.004;2022-08-19T07:29:32;71.10;;;48.63;;
1178;SDS011;578;48.408;10.004;2022-08-19T07:32:01;66.80;;;45.33;;
1178;SDS011;578;48.408;10.004;2022-08-19T07:34:30;67.47;;;46.87;;
1178;SDS011;578;48.408;10.004;2022-08-19T07:37:00;65.03;;;44.47;;
1178;SDS011;578;48.408;10.004;2022-08-19T07:39:29;77.60;;;46.47;;
1178;SDS011;578;48.408;10.004;2022-08-19T07:41:58;57.47;;;43.20;;
1178;SDS011;578;48.408;10.004;2022-08-19T07:44:27;61.33;;;45.00;;
1178;SDS011;578;48.408;10.004;2022-08-19T07:46:55;64.90;;;42.20;;
1178;SDS011;578;48.408;10.004;2022-08-19T07:49:23;62.07;;;43.13;;
1178;SDS011;578;48.408;10.004;2022-08-19T07:51:52;62.37;;;43.23;;
1178;SDS011;578;48.408;10.004;2022-08-19T07:54:22;62.33;;;42.77;;
1178;SDS011;578;48.408;10.004;2022-08-19T07:56:50;60.57;;;43.10;;
1178;SDS011;578;48.408;10.004;2022-08-19T07:59:17;58.80;;;40.57;;
1178;SDS011;578;48.408;10.004;2022-08-19T08:01:45;70.20;;;43.70;;
1178;SDS011;578;48.408;10.004;2022-08-19T08:04:12;61.70;;;41.60;;
1178;SDS011;578;48.408;10.004;2022-08-19T08:06:57;67.90;;;42.50;;
1178;SDS011;578;48.408;10.004;2022-08-19T08:09:43;65.20;;;41.10;;
1178;SDS011;578;48.408;10.004;2022-08-19T08:12:11;75.37;;;42.20;;
1178;SDS011;578;48.408;10.004;2022-08-19T08:14:41;67.17;;;44.47;;
1178;SDS011;578;48.408;10.004;2022-08-19T08:17:09;71.73;;;47.57;;
1178;SDS011;578;48.408;10.004;2022-08-19T08:19:37;63.40;;;45.70;;
1178;SDS011;578;48.408;10.004;2022-08-19T08:22:06;75.73;;;48.70;;
1178;SDS011;578;48.408;10.004;2022-08-19T08:24:33;70.40;;;47.10;;
1178;SDS011;578;48.408;10.004;2022-08-19T08:27:02;73.80;;;48.57;;
1178;SDS011;578;48.408;10.004;2022-08-19T08:29:29;70.07;;;49.20;;
1178;SDS011;578;48.408;10.004;2022-08-19T08:31:57;88.03;;;50.40;;
1178;SDS011;578;48.408;10.004;2022-08-19T08:34:23;84.37;;;52.20;;
1178;SDS011;578;48.408;10.004;2022-08-19T08:36:50;76.70;;;50.07;;
1178;SDS011;578;48.408;10.004;2022-08-19T08:39:18;72.47;;;49.80;;
1178;SDS011;578;48.408;10.004;2022-08-19T08:41:47;87.13;;;48.40;;
1178;SDS011;578;48.408;10.004;2022-08-19T08:44:22;77.60;;;50.10;;
1178;SDS011;578;48.408;10.004;2022-08-19T08:46:53;83.30;;;50.60;;
1178;SDS011;578;48.408;10.004;2022-08-19T08:49:25;89.40;;;51.70;;
1178;SDS011;578;48.408;10.004;2022-08-19T08:51:59;78.27;;;49.57;;
1178;SDS011;578;48.408;10.004;2022-08-19T08:54:30;72.20;;;50.10;;
1178;SDS011;578;48.408;10.004;2022-08-19T08:57:02;80.93;;;51.47;;
1178;SDS011;578;48.408;10.004;2022-08-19T08:59:35;97.73;;;51.23;;
1178;SDS011;578;48.408;10.004;2022-08-19T09:02:05;65.87;;;47.07;;
1178;SDS011;578;48.408;10.004;2022-08-19T09:04:33;83.73;;;52.80;;
1178;SDS011;578;48.408;10.004;2022-08-19T09:07:02;66.53;;;49.67;;
1178;SDS011;578;48.408;10.004;2022-08-19T09:09:43;76.30;;;51.37;;
1178;SDS011;578;48.408;10.004;2022-08-19T09:12:15;85.43;;;50.90;;
1178;SDS011;578;48.408;10.004;2022-08-19T09:14:52;75.37;;;51.37;;
1178;SDS011;578;48.408;10.004;2022-08-19T09:17:22;64.03;;;47.67;;
1178;SDS011;578;48.408;10.004;2022-08-19T09:19:53;67.67;;;49.77;;
1178;SDS011;578;48.408;10.004;2022-08-19T09:22:22;75.10;;;53.70;;
1178;SDS011;578;48.408;10.004;2022-08-19T09:24:51;97.43;;;53.50;;
1178;SDS011;578;48.408;10.004;2022-08-19T09:27:18;77.40;;;50.00;;
1178;SDS011;578;48.408;10.004;2022-08-19T09:29:48;75.43;;;50.90;;
1178;SDS011;578;48.408;10.004;2022-08-19T09:32:16;73.23;;;49.43;;
1178;SDS011;578;48.408;10.004;2022-08-19T09:34:44;68.30;;;48.30;;
1178;SDS011;578;48.408;10.004;2022-08-19T09:37:10;69.70;;;49.60;;
1178;SDS011;578;48.408;10.004;2022-08-19T09:39:37;61.53;;;47.70;;
1178;SDS011;578;48.408;10.004;2022-08-19T09:42:05;73.43;;;52.20;;
1178;SDS011;578;48.408;10.004;2022-08-19T09:44:36;76.17;;;52.57;;
1178;SDS011;578;48.408;10.004;2022-08-19T09:47:03;66.10;;;49.33;;
1178;SDS011;578;48.408;10.004;2022-08-19T09:49:31;70.17;;;50.63;;
1178;SDS011;578;48.408;10.004;2022-08-19T09:51:59;58.70;;;48.13;;
1178;SDS011;578;48.408;10.004;2022-08-19T09:54:26;69.83;;;51.97;;
1178;SDS011;578;48.408;10.004;2022-08-19T09:56:53;59.13;;;49.10;;
1178;SDS011;578;48.408;10.004;2022-08-19T09:59:21;59.20;;;48.03;;
1178;SDS011;578;48.408;10.004;2022-08-19T10:01:48;69.87;;;50.57;;
1178;SDS011;578;48.408;10.004;2022-08-19T10:04:15;60.63;;;47.67;;
1178;SDS011;578;48.408;10.004;2022-08-19T10:06:44;62.23;;;50.60;;
1178;SDS011;578;48.408;10.004;2022-08-19T10:09:12;54.23;;;47.77;;
1178;SDS011;578;48.408;10.004;2022-08-19T10:11:42;55.30;;;47.43;;
1178;SDS011;578;48.408;10.004;2022-08-19T10:14:13;53.70;;;45.70;;
1178;SDS011;578;48.408;10.004;2022-08-19T10:16:41;58.53;;;46.97;;
1178;SDS011;578;48.408;10.004;2022-08-19T10:19:08;57.63;;;46.13;;
1178;SDS011;578;48.408;10.004;2022-08-19T10:21:35;52.57;;;44.70;;
1178;SDS011;578;48.408;10.004;2022-08-19T10:24:04;57.23;;;47.90;;
1178;SDS011;578;48.408;10.004;2022-08-19T10:26:32;57.50;;;46.10;;
1178;SDS011;578;48.408;10.004;2022-08-19T10:29:01;53.13;;;46.07;;
1178;SDS011;578;48.408;10.004;2022-08-19T10:31:30;54.83;;;46.37;;
1178;SDS011;578;48.408;10.004;2022-08-19T10:33:58;49.77;;;44.10;;
1178;SDS011;578;48.408;10.004;2022-08-19T10:36:26;49.33;;;43.73;;
1178;SDS011;578;48.408;10.004;2022-08-19T10:38:54;50.50;;;44.23;;
1178;SDS011;578;48.408;10.004;2022-08-19T10:41:26;51.43;;;44.03;;
1178;SDS011;578;48.408;10.004;2022-08-19T10:43:55;49.60;;;42.73;;
1178;SDS011;578;48.408;10.004;2022-08-19T10:46:24;54.27;;;44.20;;
1178;SDS011;578;48.408;10.004;2022-08-19T10:48:52;48.53;;;43.23;;
1178;SDS011;578;48.408;10.004;2022-08-19T10:51:20;54.70;;;45.70;;
1178;SDS011;578;48.408;10.004;2022-08-19T10:54:04;52.17;;;43.37;;
1178;SDS011;578;48.408;10.004;2022-08-19T10:56:33;54.47;;;44.90;;
1178;SDS011;578;48.408;10.004;2022-08-19T10:59:18;50.90;;;42.73;;
1178;SDS011;578;48.408;10.004;2022-08-19T11:01:47;50.47;;;42.00;;
1178;SDS011;578;48.408;10.004;2022-08-19T11:04:15;57.30;;;46.80;;
1178;SDS011;578;48.408;10.004;2022-08-19T11:06:43;54.27;;;42.27;;
1178;SDS011;578;48.408;10.004;2022-08-19T11:09:12;55.77;;;43.70;;
1178;SDS011;578;48.408;10.004;2022-08-19T11:11:41;62.33;;;47.40;;
1178;SDS011;578;48.408;10.004;2022-08-19T11:14:09;63.07;;;46.03;;
1178;SDS011;578;48.408;10.004;2022-08-19T11:16:40;69.67;;;46.07;;
1178;SDS011;578;48.408;10.004;2022-08-19T11:19:08;62.60;;;46.50;;
1178;SDS011;578;48.408;10.004;2022-08-19T11:21:37;63.77;;;46.13;;
1178;SDS011;578;48.408;10.004;2022-08-19T11:24:06;62.47;;;47.87;;
1178;SDS011;578;48.408;10.004;2022-08-19T11:26:35;70.30;;;50.10;;
1178;SDS011;578;48.408;10.004;2022-08-19T11:29:05;68.10;;;48.57;;
1178;SDS011;578;48.408;10.004;2022-08-19T11:31:36;66.90;;;49.70;;
1178;SDS011;578;48.408;10.004;2022-08-19T11:34:04;65.43;;;48.17;;
1178;SDS011;578;48.408;10.004;2022-08-19T11:36:33;70.33;;;48.90;;
1178;SDS011;578;48.408;10.004;2022-08-19T11:39:03;55.80;;;44.40;;
1178;SDS011;578;48.408;10.004;2022-08-19T11:41:30;66.40;;;50.03;;
1178;SDS011;578;48.408;10.004;2022-08-19T11:43:57;60.83;;;47.47;;
1178;SDS011;578;48.408;10.004;2022-08-19T11:46:25;59.57;;;46.37;;
1178;SDS011;578;48.408;10.004;2022-08-19T11:48:54;56.63;;;47.33;;
1178;SDS011;578;48.408;10.004;2022-08-19T11:51:22;64.90;;;48.30;;
1178;SDS011;578;48.408;10.004;2022-08-19T11:53:50;63.40;;;48.30;;
1178;SDS011;578;48.408;10.004;2022-08-19T11:56:18;73.93;;;50.90;;
1178;SDS011;578;48.408;10.004;2022-08-19T11:58:46;72.10;;;49.57;;
1178;SDS011;578;48.408;10.004;2022-08-19T12:01:14;67.17;;;49.03;;
1178;SDS011;578;48.408;10.004;2022-08-19T12:03:43;59.60;;;47.50;;
1178;SDS011;578;48.408;10.004;2022-08-19T12:06:13;53.17;;;42.77;;
1178;SDS011;578;48.408;10.004;2022-08-19T12:08:41;59.43;;;46.17;;
1178;SDS011;578;48.408;10.004;2022-08-19T12:11:07;57.53;;;45.40;;
1178;SDS011;578;48.408;10.004;2022-08-19T12:13:35;56.47;;;45.40;;
1178;SDS011;578;48.408;10.004;2022-08-19T12:16:07;55.63;;;46.07;;
1178;SDS011;578;48.408;10.004;2022-08-19T12:18:35;60.30;;;45.00;;
1178;SDS011;578;48.408;10.004;2022-08-19T12:21:04;59.27;;;46.17;;
1178;SDS011;578;48.408;10.004;2022-08-19T12:23:30;57.17;;;45.17;;
1178;SDS011;578;48.408;10.004;2022-08-19T12:25:57;51.83;;;43.30;;
1178;SDS011;578;48.408;10.004;2022-08-19T12:28:24;58.17;;;43.00;;
1178;SDS011;578;48.408;10.004;2022-08-19T12:30:51;50.73;;;41.07;;
1178;SDS011;578;48.408;10.004;2022-08-19T12:33:19;61.73;;;45.47;;
1178;SDS011;578;48.408;10.004;2022-08-19T12:35:49;45.97;;;40.80;;
1178;SDS011;578;48.408;10.004;2022-08-19T12:38:17;53.27;;;40.63;;
1178;SDS011;578;48.408;10.004;2022-08-19T12:40:45;47.93;;;39.10;;
1178;SDS011;578;48.408;10.004;2022-08-19T12:43:12;47.53;;;39.83;;
1178;SDS011;578;48.408;10.004;2022-08-19T12:45:40;48.80;;;41.60;;
1178;SDS011;578;48.408;10.004;2022-08-19T12:48:07;53.37;;;41.10;;
1178;SDS011;578;48.408;10.004;2022-08-19T12:50:34;41.40;;;36.93;;
1178;SDS011;578;48.408;10.004;2022-08-19T12:53:01;43.50;;;37.00;;
1178;SDS011;578;48.408;10.004;2022-08-19T12:55:29;35.77;;;32.20;;
1178;SDS011;578;48.408;10.004;2022-08-19T12:57:56;35.67;;;31.87;;
1178;SDS011;578;48.408;10.004;2022-08-19T13:00:23;33.23;;;29.93;;
1178;SDS011;578;48.408;10.004;2022-08-19T13:02:51;35.27;;;31.50;;
1178;SDS011;578;48.408;10.004;2022-08-19T13:05:18;31.13;;;27.83;;
1178;SDS011;578;48.408;10.004;2022-08-19T13:07:47;31.90;;;27.90;;
1178;SDS011;578;48.408;10.004;2022-08-19T13:10:17;30.63;;;27.50;;
1178;SDS011;578;48.408;10.004;2022-08-19T13:12:47;30.30;;;26.60;;
1178;SDS011;578;48.408;10.004;2022-08-19T13:15:17;30.67;;;27.50;;
1178;SDS011;578;48.408;10.004;2022-08-19T13:17:45;26.90;;;24.30;;
1178;SDS011;578;48.408;10.004;2022-08-19T13:20:13;27.03;;;23.77;;
1178;SDS011;578;48.408;10.004;2022-08-19T13:22:41;24.40;;;22.00;;
1178;SDS011;578;48.408;10.004;2022-08-19T13:25:09;20.97;;;18.87;;
1178;SDS011;578;48.408;10.004;2022-08-19T13:27:37;22.93;;;20.83;;
1178;SDS011;578;48.408;10.004;2022-08-19T13:30:06;18.93;;;17.13;;
1178;SDS011;578;48.408;10.004;2022-08-19T13:32:52;18.43;;;16.70;;
1178;SDS011;578;48.408;10.004;2022-08-19T13:35:41;18.90;;;16.33;;
1178;SDS011;578;48.408;10.004;2022-08-19T13:38:09;19.27;;;17.47;;
1178;SDS011;578;48.408;10.004;2022-08-19T13:40:36;21.23;;;19.13;;
1178;SDS011;578;48.408;10.004;2022-08-19T13:43:04;20.00;;;17.90;;
1178;SDS011;578;48.408;10.004;2022-08-19T13:45:33;20.80;;;18.70;;
1178;SDS011;578;48.408;10.004;2022-08-19T13:48:00;20.90;;;18.90;;
1178;SDS011;578;48.408;10.004;2022-08-19T13:50:31;19.80;;;17.77;;
1178;SDS011;578;48.408;10.004;2022-08-19T13:52:59;19.23;;;17.33;;
1178;SDS011;578;48.408;10.004;2022-08-19T13:55:27;20.13;;;18.00;;
1178;SDS011;578;48.408;10.004;2022-08-19T13:57:54;20.33;;;18.37;;
1178;SDS011;578;48.408;10.004;2022-08-19T14:00:26;20.23;;;18.33;;
1178;SDS011;578;48.408;10.004;2022-08-19T14:02:56;21.20;;;17.30;;
1178;SDS011;578;48.408;10.004;2022-08-19T14:05:23;19.73;;;17.93;;
1178;SDS011;578;48.408;10.004;2022-08-19T14:07:52;19.27;;;17.30;;
1178;SDS011;578;48.408;10.004;2022-08-19T14:10:19;18.47;;;16.77;;
1178;SDS011;578;48.408;10.004;2022-08-19T14:12:46;19.73;;;17.40;;
1178;SDS011;578;48.408;10.004;2022-08-19T14:15:14;19.70;;;17.80;;
1178;SDS011;578;48.408;10.004;2022-08-19T14:17:42;20.53;;;18.50;;
1178;SDS011;578;48.408;10.004;2022-08-19T14:20:13;21.80;;;18.97;;
1178;SDS011;578;48.408;10.004;2022-08-19T14:22:41;21.60;;;19.33;;
1178;SDS011;578;48.408;10.004;2022-08-19T14:25:10;21.67;;;19.67;;
1178;SDS011;578;48.408;10.004;2022-08-19T14:27:38;22.50;;;20.27;;
1178;SDS011;578;48.408;10.004;2022-08-19T14:30:07;21.97;;;19.83;;
1178;SDS011;578;48.408;10.004;2022-08-19T14:32:36;23.37;;;20.87;;
1178;SDS011;578;48.408;10.004;2022-08-19T14:35:03;21.53;;;19.40;;
1178;SDS011;578;48.408;10.004;2022-08-19T14:37:34;22.80;;;20.50;;
1178;SDS011;578;48.408;10.004;2022-08-19T14:40:02;28.20;;;21.53;;
1178;SDS011;578;48.408;10.004;2022-08-19T14:42:29;25.43;;;22.57;;
1178;SDS011;578;48.408;10.004;2022-08-19T14:44:57;23.17;;;20.77;;
1178;SDS011;578;48.408;10.004;2022-08-19T14:47:24;24.23;;;21.73;;
1178;SDS011;578;48.408;10.004;2022-08-19T14:49:51;24.73;;;22.23;;
1178;SDS011;578;48.408;10.004;2022-08-19T14:52:18;29.13;;;23.73;;
1178;SDS011;578;48.408;10.004;2022-08-19T14:54:46;30.17;;;22.37;;
1178;SDS011;578;48.408;10.004;2022-08-19T14:57:13;25.57;;;22.87;;